Terminal Aerodrome Forecast
Issued by NWS Quad Cities IA IL

Home | Current Version | Previous Version | Text Only | Print | Product List | Glossary On
Versions: 1 2 3 4 5 6 7 8 9 10 11 12 13 14 15 16 17
000
FTUS43 KDVN 191735
TAFDBQ
TAF
KDBQ 191735Z 1918/2018 33011KT P6SM FEW035 SCT250
     FM201100 04006KT P6SM BKN070 OVC100
     FM201200 04006KT P6SM VCSH SCT050 OVC080
     FM201500 06007KT P6SM -SHRA SCT025 BKN035=

USA.gov is the U.S. government's official web portal to all federal, state and local government web resources and services.